Vera, Argentina
Current Conditions -  °F | °C
As of 6:00 AM on Monday 20 Oct 2014 (Local Time) from SARE Reporting Station
Broken Clouds Broken Clouds  
Wind Chill: 66°   Ceiling: 20000
Heat Index: 66°   Visibility: 6mi
Dew Point: 66°   Wind: 3mph
Humidity: 100%   Direction: 140°SE
Pressure: 30"   Gusts: NA
Location:  29.47°S, 60.22°W
Report Text: SARE 200900Z 14003KT 9999 FEW030 BKN200 19/19 Q1016
Loading
Personal Weather Stations






























Interactive Weather Map
Tropical Storm Tracking
New forecast layout! Learn more

10-Day Weather Forecast

Advertisements
Track Severe Weather on mobile